createdAt,value
2023-02-02T00:02:57.638Z,74.15
2023-02-02T00:06:00.221Z,74.10
2023-02-02T00:09:03.796Z,73.52
2023-02-02T00:12:06.425Z,73.58
2023-02-02T00:15:09.430Z,74.25
2023-02-02T00:18:12.423Z,73.96
2023-02-02T00:21:14.938Z,73.46
2023-02-02T00:24:18.302Z,73.22
2023-02-02T00:27:20.908Z,73.82
2023-02-02T00:30:23.841Z,73.79
2023-02-02T00:33:26.442Z,73.96
2023-02-02T00:36:29.091Z,73.74
2023-02-02T00:39:31.775Z,73.67
2023-02-02T00:42:34.379Z,73.52
2023-02-02T00:45:38.345Z,72.97
2023-02-02T00:48:40.883Z,72.43
2023-02-02T00:51:43.423Z,72.41
2023-02-02T00:54:46.125Z,71.21
2023-02-02T00:57:48.825Z,70.28
2023-02-02T01:00:52.355Z,70.13
2023-02-02T01:03:55.113Z,69.71
2023-02-02T01:06:57.714Z,69.63
2023-02-02T01:10:00.358Z,69.37
2023-02-02T01:13:03.245Z,69.74
2023-02-02T01:16:07.778Z,70.04
2023-02-02T01:19:12.655Z,70.25
2023-02-02T01:22:15.244Z,70.42
2023-02-02T01:25:17.934Z,70.62
2023-02-02T01:28:20.514Z,70.70
2023-02-02T01:31:23.210Z,71.06
2023-02-02T01:34:25.782Z,71.21
2023-02-02T01:37:28.333Z,71.54
2023-02-02T01:40:31.039Z,71.53
2023-02-02T01:43:45.652Z,71.12
2023-02-02T01:46:48.291Z,70.78
2023-02-02T01:49:51.433Z,69.94
2023-02-02T01:52:56.044Z,69.89
2023-02-02T01:55:59.202Z,68.54
2023-02-02T01:59:02.613Z,68.02
2023-02-02T02:02:05.248Z,68.61
2023-02-02T02:05:09.425Z,69.24
2023-02-02T02:08:35.312Z,69.56
2023-02-02T02:11:38.221Z,70.44
2023-02-02T02:15:00.234Z,71.35
2023-02-02T02:18:21.452Z,72.92
2023-02-02T02:21:59.225Z,74.01
2023-02-02T02:25:52.263Z,74.67
2023-02-02T02:29:22.784Z,76.24
2023-02-02T02:32:35.194Z,76.88
2023-02-02T02:36:01.036Z,76.95
2023-02-02T02:39:17.966Z,77.73
2023-02-02T02:42:23.303Z,79.55
2023-02-02T02:45:28.062Z,81.77
2023-02-02T02:48:31.835Z,83.15
2023-02-02T02:51:49.561Z,84.88
2023-02-02T02:54:58.513Z,85.85
2023-02-02T02:58:10.599Z,85.68
2023-02-02T03:01:32.289Z,85.88
2023-02-02T03:04:43.253Z,86.09
2023-02-02T03:07:50.706Z,86.80
2023-02-02T03:10:54.132Z,87.08
2023-02-02T03:13:57.033Z,87.33
2023-02-02T03:16:59.508Z,87.93
2023-02-02T03:20:02.053Z,87.29
2023-02-02T03:23:04.613Z,87.84
2023-02-02T03:26:07.497Z,87.43
2023-02-02T03:29:10.302Z,88.41
2023-02-02T03:32:12.900Z,87.87
2023-02-02T03:35:15.474Z,87.49
2023-02-02T03:38:18.178Z,88.86
2023-02-02T03:41:20.792Z,88.63
2023-02-02T03:44:23.427Z,89.09
2023-02-02T03:47:29.010Z,88.90
2023-02-02T03:50:31.726Z,89.41
2023-02-02T03:53:34.346Z,89.27
2023-02-02T03:56:36.991Z,89.67
2023-02-02T03:59:39.613Z,89.59
2023-02-02T04:02:42.309Z,90.40
2023-02-02T04:05:44.966Z,90.09
2023-02-02T04:08:47.563Z,89.66
2023-02-02T04:11:50.198Z,89.69
2023-02-02T04:14:52.785Z,89.86
2023-02-02T04:17:56.690Z,89.89
2023-02-02T04:21:00.376Z,90.01
2023-02-02T04:24:02.965Z,89.80
2023-02-02T04:27:05.616Z,89.94
2023-02-02T04:30:09.160Z,89.73
2023-02-02T04:33:11.706Z,89.77
2023-02-02T04:36:14.602Z,90.21
2023-02-02T04:39:17.158Z,89.88
2023-02-02T04:42:19.731Z,90.04
2023-02-02T04:45:23.225Z,90.28
2023-02-02T04:48:26.005Z,90.44
2023-02-02T04:51:28.589Z,89.96
2023-02-02T04:54:31.181Z,90.36
2023-02-02T04:57:33.730Z,89.95
2023-02-02T05:00:36.342Z,90.45
2023-02-02T05:03:38.983Z,90.55
2023-02-02T05:06:41.579Z,89.68
2023-02-02T05:09:44.139Z,89.33
2023-02-02T05:12:46.756Z,89.65
2023-02-02T05:15:49.446Z,89.59
2023-02-02T05:18:54.220Z,89.53
2023-02-02T05:21:56.772Z,89.18
2023-02-02T05:24:59.367Z,89.29
2023-02-02T05:28:02.188Z,89.99
2023-02-02T05:31:07.927Z,90.02
2023-02-02T05:34:11.639Z,89.97
2023-02-02T05:37:14.295Z,89.32
2023-02-02T05:40:17.115Z,89.41
2023-02-02T05:43:21.591Z,89.70
2023-02-02T05:46:24.236Z,89.76
2023-02-02T05:49:26.886Z,89.18
2023-02-02T05:52:32.003Z,89.73
2023-02-02T05:55:34.519Z,89.70
2023-02-02T05:58:37.131Z,89.27
2023-02-02T06:01:39.827Z,89.90
2023-02-02T06:04:42.535Z,90.14
2023-02-02T06:07:45.208Z,89.78
2023-02-02T06:10:47.927Z,89.16
2023-02-02T06:13:50.811Z,88.45
2023-02-02T06:16:53.461Z,88.29
2023-02-02T06:20:15.020Z,87.67
2023-02-02T06:23:17.670Z,87.88
2023-02-02T06:26:20.297Z,87.18
2023-02-02T06:29:23.147Z,86.66
2023-02-02T06:32:25.826Z,86.03
2023-02-02T06:35:28.557Z,85.51
2023-02-02T06:38:31.547Z,84.97
2023-02-02T06:41:35.246Z,85.44
2023-02-02T06:44:37.907Z,85.26
2023-02-02T06:47:40.477Z,85.50
2023-02-02T06:50:43.192Z,84.89
2023-02-02T06:53:49.502Z,84.57
2023-02-02T06:56:52.200Z,83.80
2023-02-02T06:59:54.814Z,84.16
2023-02-02T07:02:57.759Z,84.09
2023-02-02T07:06:10.264Z,83.23
2023-02-02T07:09:13.035Z,83.10
2023-02-02T07:12:15.641Z,82.45
2023-02-02T07:15:19.012Z,81.61
2023-02-02T07:18:22.613Z,82.33
2023-02-02T07:21:29.534Z,82.04
2023-02-02T07:24:33.040Z,81.63
2023-02-02T07:27:35.629Z,81.73
2023-02-02T07:30:38.370Z,81.77
2023-02-02T07:33:45.258Z,81.35
2023-02-02T07:36:47.913Z,80.98
2023-02-02T07:39:50.495Z,80.60
2023-02-02T07:42:53.043Z,80.39
2023-02-02T07:46:01.974Z,79.95
2023-02-02T07:49:04.506Z,79.03
2023-02-02T07:52:07.226Z,78.69
2023-02-02T07:55:26.473Z,78.63
2023-02-02T07:58:29.579Z,78.58
2023-02-02T08:01:32.485Z,78.85
2023-02-02T08:04:35.122Z,77.84
2023-02-02T08:07:37.729Z,78.16
2023-02-02T08:10:40.378Z,78.18
2023-02-02T08:13:44.147Z,78.62
2023-02-02T08:16:46.822Z,77.94
2023-02-02T08:19:49.487Z,78.46
2023-02-02T08:22:52.123Z,77.28
2023-02-02T08:25:56.016Z,76.76
2023-02-02T08:29:01.596Z,76.54
2023-02-02T08:32:04.959Z,76.90
2023-02-02T08:35:07.925Z,77.37
2023-02-02T08:38:10.756Z,76.75
2023-02-02T08:41:16.569Z,75.52
2023-02-02T08:44:20.143Z,75.92
2023-02-02T08:47:29.002Z,74.96
2023-02-02T08:50:31.536Z,73.97
2023-02-02T08:53:34.543Z,74.30
2023-02-02T08:56:37.200Z,73.77
2023-02-02T08:59:40.241Z,73.06
2023-02-02T09:02:42.881Z,73.43
2023-02-02T09:05:45.476Z,71.83
2023-02-02T09:08:48.527Z,73.77
2023-02-02T09:11:51.184Z,71.80
2023-02-02T09:14:53.891Z,71.95
2023-02-02T09:17:56.938Z,69.08
2023-02-02T09:21:01.108Z,68.68
2023-02-02T09:24:12.201Z,68.12
2023-02-02T09:27:14.857Z,67.87
2023-02-02T09:30:17.843Z,66.91
2023-02-02T09:33:20.376Z,64.57
2023-02-02T09:36:24.387Z,64.00
2023-02-02T09:39:27.175Z,61.07
2023-02-02T09:42:35.387Z,61.61
2023-02-02T09:45:46.883Z,59.57
2023-02-02T09:49:02.410Z,59.91
2023-02-02T09:52:34.988Z,59.02
2023-02-02T09:55:40.376Z,62.06
2023-02-02T09:58:53.235Z,62.49
2023-02-02T10:01:58.550Z,62.52
2023-02-02T10:05:08.836Z,61.95
2023-02-02T10:08:20.571Z,62.16
2023-02-02T10:11:55.098Z,62.29
2023-02-02T10:15:38.585Z,62.40
2023-02-02T10:18:43.298Z,62.36
2023-02-02T10:22:03.070Z,62.54
2023-02-02T10:25:06.299Z,63.56
2023-02-02T10:28:40.218Z,63.12
2023-02-02T10:32:04.052Z,64.02
2023-02-02T10:35:37.816Z,63.06
2023-02-02T10:38:58.405Z,61.23
2023-02-02T10:42:30.530Z,61.16
2023-02-02T10:45:33.468Z,60.25
2023-02-02T10:48:36.355Z,61.53
2023-02-02T10:51:41.350Z,58.99
2023-02-02T10:55:04.167Z,61.18
2023-02-02T10:58:13.164Z,61.05
2023-02-02T11:01:18.366Z,60.72
2023-02-02T11:04:40.786Z,61.33
2023-02-02T11:07:43.545Z,62.19
2023-02-02T11:10:48.611Z,62.70
2023-02-02T11:13:54.179Z,61.20
2023-02-02T11:17:06.104Z,61.93
2023-02-02T11:20:35.423Z,61.20
2023-02-02T11:23:38.126Z,61.90
2023-02-02T11:27:02.185Z,62.71
2023-02-02T11:30:12.799Z,63.37
2023-02-02T11:33:29.045Z,63.43
2023-02-02T11:36:31.724Z,62.65
2023-02-02T11:39:34.369Z,63.51
2023-02-02T11:42:37.052Z,63.02
2023-02-02T11:45:41.993Z,63.90
2023-02-02T11:49:07.945Z,64.30
2023-02-02T11:52:18.336Z,63.27
2023-02-02T11:55:27.431Z,62.65
2023-02-02T11:58:50.055Z,62.37
2023-02-02T12:02:10.596Z,61.77
2023-02-02T12:05:23.843Z,60.81
2023-02-02T12:08:26.395Z,60.28
2023-02-02T12:11:52.241Z,62.70
2023-02-02T12:15:19.985Z,61.71
2023-02-02T12:18:52.350Z,60.11
2023-02-02T12:22:17.709Z,58.84
2023-02-02T12:25:44.951Z,58.03
2023-02-02T12:28:53.317Z,57.62
2023-02-02T12:32:24.266Z,58.82
2023-02-02T12:35:51.623Z,58.49
2023-02-02T12:39:09.138Z,59.52
2023-02-02T12:42:12.164Z,58.28
2023-02-02T12:45:21.830Z,59.29
2023-02-02T12:48:42.484Z,58.37
2023-02-02T12:52:07.335Z,59.01
2023-02-02T12:55:16.388Z,60.63
2023-02-02T12:58:45.615Z,60.25
2023-02-02T13:01:51.032Z,59.33
2023-02-02T13:04:59.720Z,59.82
2023-02-02T13:08:07.291Z,59.58
2023-02-02T13:11:30.158Z,59.39
2023-02-02T13:14:47.182Z,59.47
2023-02-02T13:17:59.565Z,59.87
2023-02-02T13:21:03.624Z,59.61
2023-02-02T13:24:08.172Z,60.96
2023-02-02T13:27:14.923Z,59.68
2023-02-02T13:30:30.089Z,60.75
2023-02-02T13:33:35.804Z,58.84
2023-02-02T13:36:40.102Z,60.43
2023-02-02T13:39:47.473Z,58.22
2023-02-02T13:42:55.283Z,58.13
2023-02-02T13:46:12.422Z,59.56
2023-02-02T13:49:29.220Z,60.18
2023-02-02T13:53:02.729Z,59.71
2023-02-02T13:56:25.924Z,61.13
2023-02-02T14:00:03.527Z,60.88
2023-02-02T14:03:33.922Z,62.16
2023-02-02T14:07:00.397Z,62.93
2023-02-02T14:10:04.581Z,62.83
2023-02-02T14:13:32.953Z,62.66
2023-02-02T14:16:36.001Z,63.75
2023-02-02T14:19:41.557Z,63.74
2023-02-02T14:22:54.822Z,63.80
2023-02-02T14:26:42.737Z,62.98
2023-02-02T14:29:47.224Z,62.20
2023-02-02T14:32:50.658Z,62.98
2023-02-02T14:36:01.443Z,64.04
2023-02-02T14:39:16.706Z,63.00
2023-02-02T14:43:03.480Z,62.38
2023-02-02T14:46:15.806Z,63.56
2023-02-02T14:49:21.034Z,64.55
2023-02-02T14:52:23.779Z,64.00
2023-02-02T14:55:27.710Z,65.94
2023-02-02T14:58:30.323Z,65.93
2023-02-02T15:01:34.659Z,66.21
2023-02-02T15:04:37.529Z,66.93
2023-02-02T15:07:53.004Z,66.69
2023-02-02T15:10:56.787Z,67.14
2023-02-02T15:14:07.232Z,67.70
2023-02-02T15:17:25.137Z,68.29
2023-02-02T15:20:32.688Z,67.84
2023-02-02T15:23:39.726Z,68.38
2023-02-02T15:26:43.072Z,68.76
2023-02-02T15:29:49.593Z,69.17
2023-02-02T15:32:52.973Z,68.58
2023-02-02T15:35:57.423Z,68.52
2023-02-02T15:39:04.056Z,68.07
2023-02-02T15:42:33.402Z,68.26
2023-02-02T15:45:48.932Z,68.69
2023-02-02T15:49:35.759Z,68.61
2023-02-02T15:52:46.886Z,68.80
2023-02-02T15:55:50.045Z,67.95
2023-02-02T15:58:55.747Z,68.29
2023-02-02T16:02:07.084Z,69.29
2023-02-02T16:05:38.521Z,69.32
2023-02-02T16:08:42.051Z,70.41
2023-02-02T16:11:47.072Z,70.52
2023-02-02T16:14:51.942Z,70.67
2023-02-02T16:18:02.961Z,69.76
2023-02-02T16:21:14.929Z,70.82
2023-02-02T16:24:24.192Z,71.04
2023-02-02T16:27:29.194Z,70.93
2023-02-02T16:30:37.998Z,70.81
2023-02-02T16:33:45.598Z,71.60
2023-02-02T16:37:32.347Z,71.88
2023-02-02T16:40:35.179Z,72.04
2023-02-02T16:43:42.320Z,72.77
2023-02-02T16:46:47.916Z,73.09
2023-02-02T16:49:50.623Z,72.96
2023-02-02T16:53:05.149Z,73.19
2023-02-02T16:56:07.917Z,74.40
2023-02-02T16:59:37.807Z,75.66
2023-02-02T17:02:42.343Z,76.78
2023-02-02T17:05:54.232Z,77.68
2023-02-02T17:08:56.926Z,77.40
2023-02-02T17:12:12.202Z,77.05
2023-02-02T17:15:17.025Z,77.09
2023-02-02T17:18:19.591Z,76.50
2023-02-02T17:21:24.561Z,75.83
2023-02-02T17:24:27.844Z,76.20
2023-02-02T17:27:34.118Z,75.75
2023-02-02T17:30:37.364Z,75.65
2023-02-02T17:33:40.403Z,76.66
2023-02-02T17:36:45.892Z,76.38
2023-02-02T17:39:50.532Z,77.46
2023-02-02T17:42:53.555Z,77.60
2023-02-02T17:45:56.289Z,78.29
2023-02-02T17:48:58.892Z,78.49
2023-02-02T17:52:01.432Z,78.97
2023-02-02T17:55:18.113Z,79.01
2023-02-02T17:58:20.835Z,79.00
2023-02-02T18:01:23.611Z,79.11
2023-02-02T18:04:27.033Z,79.18
2023-02-02T18:07:29.693Z,79.27
2023-02-02T18:10:32.640Z,79.71
2023-02-02T18:13:35.321Z,79.58
2023-02-02T18:16:37.883Z,79.92
2023-02-02T18:19:44.906Z,80.66
2023-02-02T18:22:48.757Z,80.91
2023-02-02T18:25:52.963Z,80.51
2023-02-02T18:28:55.633Z,80.06
2023-02-02T18:31:59.378Z,79.28
2023-02-02T18:35:02.429Z,79.37
2023-02-02T18:38:05.009Z,79.35
2023-02-02T18:41:08.113Z,78.58
2023-02-02T18:44:10.827Z,77.66
2023-02-02T18:47:13.484Z,77.41
2023-02-02T18:50:16.519Z,77.67
2023-02-02T18:53:19.550Z,77.68
2023-02-02T18:56:22.125Z,77.28
2023-02-02T18:59:24.942Z,77.73
2023-02-02T19:02:27.695Z,77.83
2023-02-02T19:05:49.018Z,77.36
2023-02-02T19:08:51.962Z,77.37
2023-02-02T19:11:55.036Z,77.46
2023-02-02T19:14:57.777Z,76.06
2023-02-02T19:18:00.883Z,76.62
2023-02-02T19:21:04.937Z,75.97
2023-02-02T19:24:12.756Z,76.37
2023-02-02T19:27:18.086Z,75.78
2023-02-02T19:30:23.154Z,75.01
2023-02-02T19:33:39.654Z,75.39
2023-02-02T19:36:46.830Z,75.20
2023-02-02T19:39:49.768Z,74.82
2023-02-02T19:43:14.942Z,74.64
2023-02-02T19:46:23.184Z,74.37
2023-02-02T19:49:34.432Z,74.91
2023-02-02T19:52:37.183Z,74.52
2023-02-02T19:55:40.776Z,74.37
2023-02-02T19:58:49.281Z,74.76
2023-02-02T20:01:51.953Z,74.28
2023-02-02T20:05:22.202Z,74.28
2023-02-02T20:08:41.513Z,74.48
2023-02-02T20:11:45.747Z,74.96
2023-02-02T20:14:48.918Z,74.82
2023-02-02T20:17:54.341Z,74.92
2023-02-02T20:20:57.232Z,74.25
2023-02-02T20:24:00.206Z,74.00
2023-02-02T20:27:23.528Z,74.51
2023-02-02T20:30:30.960Z,74.21
2023-02-02T20:33:33.795Z,74.29
2023-02-02T20:36:40.958Z,74.31
2023-02-02T20:39:48.003Z,74.62
2023-02-02T20:42:51.396Z,73.61
2023-02-02T20:45:54.277Z,73.97
2023-02-02T20:48:57.066Z,74.74
2023-02-02T20:52:02.260Z,74.52
2023-02-02T20:55:05.323Z,74.90
2023-02-02T20:58:09.912Z,74.42
2023-02-02T21:01:12.905Z,74.77
2023-02-02T21:04:15.886Z,74.84
2023-02-02T21:07:21.436Z,75.08
2023-02-02T21:10:25.922Z,74.40
2023-02-02T21:13:29.001Z,74.54
2023-02-02T21:16:31.764Z,74.41
2023-02-02T21:19:34.448Z,74.20
2023-02-02T21:22:37.188Z,74.35
2023-02-02T21:25:39.766Z,73.81
2023-02-02T21:28:42.381Z,74.29
2023-02-02T21:31:45.302Z,74.37
2023-02-02T21:34:49.377Z,73.89
2023-02-02T21:37:55.268Z,74.05
2023-02-02T21:40:59.654Z,74.80
2023-02-02T21:44:02.548Z,74.21
2023-02-02T21:47:27.239Z,73.96
2023-02-02T21:50:35.946Z,74.20
2023-02-02T21:53:38.494Z,74.25
2023-02-02T21:56:42.151Z,74.35
2023-02-02T21:59:46.846Z,74.83
2023-02-02T22:02:51.218Z,74.14
2023-02-02T22:06:16.913Z,74.90
2023-02-02T22:09:24.767Z,75.73
2023-02-02T22:12:28.690Z,77.49
2023-02-02T22:15:34.519Z,78.57
2023-02-02T22:18:37.159Z,79.29
2023-02-02T22:21:39.723Z,80.09
2023-02-02T22:24:44.309Z,81.32
2023-02-02T22:28:01.564Z,82.69
2023-02-02T22:31:05.237Z,84.09
2023-02-02T22:34:07.975Z,82.85
2023-02-02T22:37:10.571Z,84.17
2023-02-02T22:40:13.802Z,83.77
2023-02-02T22:43:17.635Z,83.50
2023-02-02T22:46:20.167Z,83.54
2023-02-02T22:49:22.770Z,82.80
2023-02-02T22:52:25.406Z,83.27
2023-02-02T22:55:28.137Z,83.20
2023-02-02T22:58:30.728Z,82.63
2023-02-02T23:01:33.281Z,82.51
2023-02-02T23:04:35.810Z,83.15
2023-02-02T23:07:39.670Z,83.48
2023-02-02T23:10:42.263Z,83.77
2023-02-02T23:13:44.792Z,84.45
2023-02-02T23:16:47.395Z,84.23
2023-02-02T23:19:49.964Z,83.97
2023-02-02T23:22:52.498Z,84.14
2023-02-02T23:25:55.158Z,84.64
2023-02-02T23:28:57.702Z,83.41
2023-02-02T23:32:00.315Z,83.79
2023-02-02T23:35:03.891Z,84.13
2023-02-02T23:38:06.424Z,84.93
2023-02-02T23:41:08.972Z,85.48
2023-02-02T23:44:11.725Z,84.95
2023-02-02T23:47:14.414Z,85.58
2023-02-02T23:50:16.995Z,84.62
2023-02-02T23:53:19.895Z,84.32
2023-02-02T23:56:22.622Z,84.78
2023-02-02T23:59:25.245Z,84.05
